Terminal Aerodrome Forecast
Issued by NWS

Home | Current Version | Previous Version | Text Only | Print | Product List | Glossary On
Versions: 1 2 3 4 5 6 7 8 9 10 11 12 13 14 15 16 17 18 19 20 21 22 23 24 25 26 27 28 29 30 31 32 33 34 35 36 37 38 39 40 41 42
000
FTUS45 KGJT 180535
TAFTEX
TAF
KTEX 180535Z 1806/1906 24003KT 2SM -SN SCT003 BKN020
      TEMPO 1807/1809 1/2SM FG VV002
     FM181600 VRB03KT 4SM BR OVC003
     FM182100 26005KT P6SM SCT003 BKN025
     FM190500 15003KT P6SM BKN100=

USA.gov is the U.S. government's official web portal to all federal, state and local government web resources and services.